createdAt,value
2018-09-23T00:00:02.790Z,58.90
2018-09-23T00:00:36.089Z,58.90
2018-09-23T00:01:09.362Z,58.90
2018-09-23T00:01:42.665Z,58.80
2018-09-23T00:02:15.977Z,58.90
2018-09-23T00:02:49.263Z,58.90
2018-09-23T00:03:22.532Z,58.90
2018-09-23T00:03:55.841Z,58.80
2018-09-23T00:04:29.216Z,58.80
2018-09-23T00:05:02.565Z,58.70
2018-09-23T00:05:35.843Z,58.80
2018-09-23T00:06:09.150Z,58.70
2018-09-23T00:06:42.551Z,58.80
2018-09-23T00:07:15.865Z,58.80
2018-09-23T00:07:49.145Z,58.80
2018-09-23T00:08:22.413Z,58.90
2018-09-23T00:08:55.717Z,58.90
2018-09-23T00:09:28.981Z,58.80
2018-09-23T00:10:02.258Z,59.00
2018-09-23T00:10:35.527Z,58.90
2018-09-23T00:11:08.777Z,58.80
2018-09-23T00:11:42.104Z,59.00
2018-09-23T00:12:15.458Z,58.80
2018-09-23T00:12:48.783Z,59.00
2018-09-23T00:13:22.118Z,58.90
2018-09-23T00:13:55.471Z,58.80
2018-09-23T00:14:28.843Z,58.90
2018-09-23T00:15:02.242Z,58.80
2018-09-23T00:15:35.586Z,58.80
2018-09-23T00:16:08.883Z,58.90
2018-09-23T00:16:42.183Z,59.00
2018-09-23T00:17:15.481Z,58.70
2018-09-23T00:17:48.849Z,59.00
2018-09-23T00:18:22.141Z,58.90
2018-09-23T00:18:55.398Z,58.80
2018-09-23T00:19:28.642Z,59.00
2018-09-23T00:20:02.012Z,58.90
2018-09-23T00:20:35.359Z,58.80
2018-09-23T00:21:08.700Z,58.90
2018-09-23T00:21:42.065Z,58.90
2018-09-23T00:22:15.429Z,58.90
2018-09-23T00:22:48.873Z,58.90
2018-09-23T00:23:22.215Z,58.90
2018-09-23T00:23:55.530Z,58.80
2018-09-23T00:24:28.837Z,59.10
2018-09-23T00:25:02.154Z,59.00
2018-09-23T00:25:35.429Z,58.90
2018-09-23T00:26:08.678Z,59.10
2018-09-23T00:26:42.050Z,59.00
2018-09-23T00:27:15.350Z,58.90
2018-09-23T00:27:48.689Z,58.90
2018-09-23T00:28:21.939Z,59.00
2018-09-23T00:28:55.251Z,58.90
2018-09-23T00:29:33.626Z,58.90
2018-09-23T00:30:07.083Z,59.00
2018-09-23T00:30:40.405Z,59.00
2018-09-23T00:31:13.738Z,59.20
2018-09-23T00:31:47.111Z,59.00
2018-09-23T00:32:22.100Z,59.20
2018-09-23T00:32:55.397Z,59.10
2018-09-23T00:33:28.716Z,59.00
2018-09-23T00:34:02.008Z,59.00
2018-09-23T00:34:35.350Z,59.00
2018-09-23T00:35:08.670Z,59.00
2018-09-23T00:35:41.923Z,58.90
2018-09-23T00:36:15.216Z,59.00
2018-09-23T00:36:48.515Z,59.00
2018-09-23T00:37:22.613Z,59.20
2018-09-23T00:37:55.898Z,58.90
2018-09-23T00:38:29.198Z,59.20
2018-09-23T00:39:02.509Z,59.00
2018-09-23T00:39:35.850Z,59.20
2018-09-23T00:40:09.186Z,59.00
2018-09-23T00:40:42.459Z,59.00
2018-09-23T00:41:15.740Z,59.00
2018-09-23T00:41:49.038Z,59.00
2018-09-23T00:42:22.367Z,59.20
2018-09-23T00:42:55.655Z,59.10
2018-09-23T00:43:29.048Z,59.00
2018-09-23T00:44:02.338Z,59.10
2018-09-23T00:44:35.590Z,59.10
2018-09-23T00:45:08.908Z,59.10
2018-09-23T00:45:42.200Z,59.10
2018-09-23T00:46:15.488Z,59.10
2018-09-23T00:46:48.822Z,59.20
2018-09-23T00:47:22.235Z,59.20
2018-09-23T00:47:55.542Z,59.20
2018-09-23T00:48:28.815Z,59.10
2018-09-23T00:49:02.128Z,59.20
2018-09-23T00:49:35.420Z,59.10
2018-09-23T00:50:08.715Z,59.10
2018-09-23T00:50:42.088Z,59.20
2018-09-23T00:51:15.379Z,58.90
2018-09-23T00:51:48.677Z,58.90
2018-09-23T00:52:22.087Z,59.10
2018-09-23T00:52:55.414Z,59.00
2018-09-23T00:53:28.826Z,59.00
2018-09-23T00:54:02.196Z,59.10
2018-09-23T00:54:35.479Z,58.90
2018-09-23T00:55:08.838Z,59.10
2018-09-23T00:55:42.117Z,59.10
2018-09-23T00:56:15.426Z,59.20
2018-09-23T00:56:48.763Z,59.10
2018-09-23T00:57:22.149Z,59.10
2018-09-23T00:57:55.434Z,59.40
2018-09-23T00:58:28.690Z,59.00
2018-09-23T00:59:01.979Z,59.00
2018-09-23T00:59:35.271Z,59.10
2018-09-23T01:00:08.671Z,59.10
2018-09-23T01:00:42.099Z,59.20
2018-09-23T01:01:15.344Z,59.00
2018-09-23T01:01:48.673Z,59.20
2018-09-23T01:02:21.962Z,59.30
2018-09-23T01:02:55.287Z,59.20
2018-09-23T01:03:28.567Z,59.20
2018-09-23T01:04:01.847Z,59.10
2018-09-23T01:04:35.126Z,59.20
2018-09-23T01:05:08.408Z,59.10
2018-09-23T01:05:41.764Z,59.00
2018-09-23T01:06:15.080Z,59.20
2018-09-23T01:06:48.419Z,59.10
2018-09-23T01:07:21.731Z,59.20
2018-09-23T01:07:54.995Z,59.20
2018-09-23T01:08:28.295Z,59.20
2018-09-23T01:09:01.601Z,59.30
2018-09-23T01:09:34.911Z,59.10
2018-09-23T01:10:08.225Z,59.00
2018-09-23T01:10:41.534Z,59.30
2018-09-23T01:11:14.909Z,59.00
2018-09-23T01:11:48.242Z,59.10
2018-09-23T01:12:21.564Z,59.10
2018-09-23T01:12:54.954Z,59.30
2018-09-23T01:13:28.282Z,59.20
2018-09-23T01:14:01.510Z,59.10
2018-09-23T01:14:34.809Z,59.10
2018-09-23T01:15:08.225Z,59.20
2018-09-23T01:15:41.487Z,59.00
2018-09-23T01:16:14.842Z,59.00
2018-09-23T01:16:48.213Z,59.00
2018-09-23T01:17:21.563Z,59.20
2018-09-23T01:17:54.864Z,59.10
2018-09-23T01:18:28.207Z,59.20
2018-09-23T01:19:01.504Z,59.50
2018-09-23T01:19:34.818Z,59.20
2018-09-23T01:20:08.147Z,59.30
2018-09-23T01:20:41.437Z,59.20
2018-09-23T01:21:14.702Z,59.20
2018-09-23T01:21:48.243Z,59.20
2018-09-23T01:22:21.685Z,59.10
2018-09-23T01:22:54.991Z,59.30
2018-09-23T01:23:28.302Z,59.10
2018-09-23T01:24:01.619Z,59.50
2018-09-23T01:24:34.909Z,59.20
2018-09-23T01:25:08.200Z,59.50
2018-09-23T01:25:41.507Z,59.20
2018-09-23T01:26:14.784Z,59.30
2018-09-23T01:26:48.184Z,59.30
2018-09-23T01:27:21.504Z,59.30
2018-09-23T01:27:54.782Z,59.20
2018-09-23T01:28:28.070Z,59.30
2018-09-23T01:29:01.495Z,58.80
2018-09-23T01:29:34.876Z,59.40
2018-09-23T01:30:08.202Z,59.30
2018-09-23T01:30:41.491Z,59.30
2018-09-23T01:31:14.878Z,59.40
2018-09-23T01:31:48.255Z,59.30
2018-09-23T01:32:21.609Z,59.30
2018-09-23T01:32:54.963Z,59.50
2018-09-23T01:33:28.249Z,59.30
2018-09-23T01:34:01.541Z,59.20
2018-09-23T01:34:34.774Z,59.20
2018-09-23T01:35:08.082Z,59.30
2018-09-23T01:35:41.465Z,59.50
2018-09-23T01:36:14.728Z,59.50
2018-09-23T01:36:48.076Z,59.30
2018-09-23T01:37:21.409Z,59.50
2018-09-23T01:37:54.791Z,59.50
2018-09-23T01:38:28.104Z,59.50
2018-09-23T01:39:01.414Z,59.50
2018-09-23T01:39:34.667Z,59.40
2018-09-23T01:40:07.930Z,59.50
2018-09-23T01:40:41.287Z,59.40
2018-09-23T01:41:14.622Z,59.50
2018-09-23T01:41:47.941Z,59.30
2018-09-23T01:42:21.249Z,59.30
2018-09-23T01:42:54.547Z,59.40
2018-09-23T01:43:27.829Z,59.40
2018-09-23T01:44:01.145Z,59.40
2018-09-23T01:44:34.441Z,59.40
2018-09-23T01:45:07.774Z,59.50
2018-09-23T01:45:41.101Z,59.50
2018-09-23T01:46:14.532Z,59.30
2018-09-23T01:46:47.945Z,59.40
2018-09-23T01:47:21.219Z,59.40
2018-09-23T01:47:54.590Z,59.50
2018-09-23T01:48:27.870Z,59.40
2018-09-23T01:49:01.242Z,59.40
2018-09-23T01:49:34.574Z,59.40
2018-09-23T01:50:07.876Z,59.40
2018-09-23T01:50:41.171Z,59.40
2018-09-23T01:51:14.507Z,59.50
2018-09-23T01:51:47.810Z,59.40
2018-09-23T01:52:21.190Z,59.40
2018-09-23T01:52:54.461Z,59.40
2018-09-23T01:53:27.758Z,59.40
2018-09-23T01:54:01.099Z,59.40
2018-09-23T01:54:34.381Z,59.40
2018-09-23T01:55:07.659Z,59.40
2018-09-23T01:55:40.949Z,59.40
2018-09-23T01:56:14.339Z,59.40
2018-09-23T01:56:47.618Z,59.40
2018-09-23T01:57:20.969Z,59.40
2018-09-23T01:57:54.246Z,59.40
2018-09-23T01:58:27.529Z,59.40
2018-09-23T01:59:00.845Z,59.40
2018-09-23T01:59:34.110Z,59.40
2018-09-23T02:00:07.455Z,59.40
2018-09-23T02:00:40.792Z,59.40
2018-09-23T02:01:14.149Z,59.40
2018-09-23T02:01:47.501Z,59.40
2018-09-23T02:02:20.878Z,59.40
2018-09-23T02:02:54.229Z,59.40
2018-09-23T02:03:27.517Z,59.40
2018-09-23T02:04:00.895Z,59.40
2018-09-23T02:04:34.200Z,59.40
2018-09-23T02:05:07.489Z,59.40
2018-09-23T02:05:40.810Z,59.40
2018-09-23T02:06:14.112Z,59.40
2018-09-23T02:06:47.498Z,59.40
2018-09-23T02:07:20.788Z,59.40
2018-09-23T02:07:54.127Z,59.40
2018-09-23T02:08:27.395Z,59.40
2018-09-23T02:09:00.715Z,59.40
2018-09-23T02:09:34.010Z,59.40
2018-09-23T02:10:07.315Z,59.40
2018-09-23T02:10:40.609Z,59.40
2018-09-23T02:11:13.957Z,59.40
2018-09-23T02:11:47.331Z,59.40
2018-09-23T02:12:20.640Z,59.40
2018-09-23T02:12:53.963Z,59.40
2018-09-23T02:13:27.290Z,59.30
2018-09-23T02:14:00.659Z,59.40
2018-09-23T02:14:34.033Z,59.40
2018-09-23T02:15:07.529Z,59.40
2018-09-23T02:15:40.772Z,59.40
2018-09-23T02:16:14.107Z,59.40
2018-09-23T02:16:47.469Z,59.40
2018-09-23T02:17:20.834Z,59.40
2018-09-23T02:17:54.122Z,59.40
2018-09-23T02:18:27.402Z,59.40
2018-09-23T02:19:00.755Z,59.40
2018-09-23T02:19:34.096Z,59.40
2018-09-23T02:20:07.338Z,59.40
2018-09-23T02:20:40.618Z,59.40
2018-09-23T02:21:13.928Z,59.40
2018-09-23T02:21:47.507Z,59.40
2018-09-23T02:22:20.848Z,59.40
2018-09-23T02:22:54.261Z,59.50
2018-09-23T02:23:27.603Z,59.40
2018-09-23T02:24:00.906Z,59.40
2018-09-23T02:24:34.201Z,59.40
2018-09-23T02:25:07.577Z,59.50
2018-09-23T02:25:40.996Z,59.40
2018-09-23T02:26:14.288Z,59.40
2018-09-23T02:26:47.661Z,59.40
2018-09-23T02:27:21.078Z,59.40
2018-09-23T02:27:54.386Z,59.40
2018-09-23T02:28:27.692Z,59.40
2018-09-23T02:29:01.005Z,59.40
2018-09-23T02:29:34.399Z,59.40
2018-09-23T02:30:07.652Z,59.50
2018-09-23T02:30:40.916Z,59.40
2018-09-23T02:31:14.245Z,59.40
2018-09-23T02:31:47.560Z,59.40
2018-09-23T02:32:20.868Z,60.00
2018-09-23T02:32:54.171Z,59.60
2018-09-23T02:33:27.514Z,59.40
2018-09-23T02:34:00.895Z,59.40
2018-09-23T02:34:34.286Z,59.40
2018-09-23T02:35:07.642Z,59.40
2018-09-23T02:35:40.938Z,59.40
2018-09-23T02:36:14.257Z,59.40
2018-09-23T02:36:47.545Z,59.40
2018-09-23T02:37:20.857Z,59.40
2018-09-23T02:37:55.156Z,59.40
2018-09-23T02:38:28.590Z,59.40
2018-09-23T02:39:01.861Z,59.40
2018-09-23T02:39:35.139Z,59.40
2018-09-23T02:40:08.490Z,59.40
2018-09-23T02:40:41.817Z,59.40
2018-09-23T02:41:15.111Z,59.40
2018-09-23T02:41:48.505Z,59.40
2018-09-23T02:42:21.867Z,59.40
2018-09-23T02:42:55.205Z,59.40
2018-09-23T02:43:28.710Z,59.40
2018-09-23T02:44:01.993Z,59.70
2018-09-23T02:44:35.275Z,59.70
2018-09-23T02:45:08.543Z,60.50
2018-09-23T02:45:41.921Z,59.40
2018-09-23T02:46:15.267Z,59.40
2018-09-23T02:46:48.676Z,59.40
2018-09-23T02:47:22.235Z,59.40
2018-09-23T02:47:55.590Z,59.40
2018-09-23T02:48:28.914Z,59.40
2018-09-23T02:49:02.264Z,59.40
2018-09-23T02:49:35.544Z,59.60
2018-09-23T02:50:08.980Z,59.70
2018-09-23T02:50:42.293Z,59.40
2018-09-23T02:51:15.636Z,59.40
2018-09-23T02:51:48.936Z,59.40
2018-09-23T02:52:22.238Z,59.40
2018-09-23T02:52:55.518Z,59.80
2018-09-23T02:53:28.928Z,59.70
2018-09-23T02:54:02.219Z,59.60
2018-09-23T02:54:35.589Z,59.30
2018-09-23T02:55:08.886Z,59.40
2018-09-23T02:55:42.183Z,59.50
2018-09-23T02:56:15.458Z,59.40
2018-09-23T02:56:48.743Z,59.50
2018-09-23T02:57:22.064Z,59.60
2018-09-23T02:57:55.369Z,59.70
2018-09-23T02:58:28.695Z,59.40
2018-09-23T02:59:01.997Z,59.40
2018-09-23T02:59:35.264Z,59.60
2018-09-23T03:00:08.621Z,59.50
2018-09-23T03:00:41.920Z,59.60
2018-09-23T03:01:15.222Z,59.70
2018-09-23T03:01:48.541Z,59.70
2018-09-23T03:02:21.954Z,59.50
2018-09-23T03:02:55.259Z,59.60
2018-09-23T03:03:28.553Z,59.60
2018-09-23T03:04:01.806Z,59.60
2018-09-23T03:04:35.094Z,59.60
2018-09-23T03:05:08.324Z,59.50
2018-09-23T03:05:41.621Z,59.70
2018-09-23T03:06:14.941Z,59.80
2018-09-23T03:06:48.283Z,59.60
2018-09-23T03:07:21.610Z,59.70
2018-09-23T03:07:54.896Z,59.70
2018-09-23T03:08:28.208Z,59.70
2018-09-23T03:09:01.470Z,59.30
2018-09-23T03:09:34.780Z,59.80
2018-09-23T03:10:08.015Z,59.80
2018-09-23T03:10:41.252Z,59.60
2018-09-23T03:11:14.598Z,59.80
2018-09-23T03:11:47.905Z,59.30
2018-09-23T03:12:21.449Z,59.60
2018-09-23T03:12:54.797Z,59.80
2018-09-23T03:13:28.165Z,59.30
2018-09-23T03:14:01.432Z,59.50
2018-09-23T03:14:34.744Z,60.10
2018-09-23T03:15:08.056Z,59.30
2018-09-23T03:15:41.369Z,59.60
2018-09-23T03:16:14.703Z,59.60
2018-09-23T03:16:48.046Z,59.60
2018-09-23T03:17:21.359Z,59.70
2018-09-23T03:17:54.624Z,59.30
2018-09-23T03:18:27.904Z,59.40
2018-09-23T03:19:01.182Z,59.70
2018-09-23T03:19:34.483Z,59.60
2018-09-23T03:20:07.746Z,59.80
2018-09-23T03:20:41.045Z,59.60
2018-09-23T03:21:14.316Z,59.30
2018-09-23T03:21:47.692Z,59.60
2018-09-23T03:22:21.037Z,59.70
2018-09-23T03:22:54.321Z,59.60
2018-09-23T03:23:27.634Z,59.80
2018-09-23T03:24:00.983Z,59.60
2018-09-23T03:24:34.285Z,59.80
2018-09-23T03:25:07.603Z,59.80
2018-09-23T03:25:40.866Z,59.40
2018-09-23T03:26:14.149Z,59.40
2018-09-23T03:26:47.536Z,59.30
2018-09-23T03:27:20.834Z,59.80
2018-09-23T03:27:54.119Z,59.40
2018-09-23T03:28:27.390Z,59.60
2018-09-23T03:29:00.745Z,59.70
2018-09-23T03:29:34.014Z,59.50
2018-09-23T03:30:07.306Z,59.50
2018-09-23T03:30:40.704Z,59.80
2018-09-23T03:31:14.142Z,59.70
2018-09-23T03:31:47.625Z,59.70
2018-09-23T03:32:21.139Z,59.50
2018-09-23T03:32:54.496Z,59.70
2018-09-23T03:33:27.917Z,59.80
2018-09-23T03:34:01.245Z,59.70
2018-09-23T03:34:34.537Z,59.80
2018-09-23T03:35:07.917Z,59.70
2018-09-23T03:35:41.198Z,59.50
2018-09-23T03:36:14.478Z,59.70
2018-09-23T03:36:47.821Z,59.70
2018-09-23T03:37:21.186Z,59.60
2018-09-23T03:37:54.484Z,59.40
2018-09-23T03:38:28.173Z,59.40
2018-09-23T03:39:01.474Z,60.20
2018-09-23T03:39:34.769Z,59.30
2018-09-23T03:40:08.160Z,59.30
2018-09-23T03:40:41.477Z,59.60
2018-09-23T03:41:14.808Z,59.40
2018-09-23T03:41:48.115Z,59.40
2018-09-23T03:42:21.576Z,59.40
2018-09-23T03:42:55.332Z,59.80
2018-09-23T03:43:28.683Z,59.70
2018-09-23T03:44:02.057Z,59.50
2018-09-23T03:44:35.367Z,59.80
2018-09-23T03:45:08.701Z,59.80
2018-09-23T03:45:41.980Z,59.60
2018-09-23T03:46:15.347Z,59.90
2018-09-23T03:46:48.704Z,60.40
2018-09-23T03:47:22.069Z,59.70
2018-09-23T03:47:55.360Z,59.70
2018-09-23T03:48:28.720Z,59.60
2018-09-23T03:49:02.294Z,59.70
2018-09-23T03:49:35.678Z,59.80
2018-09-23T03:50:08.957Z,59.70
2018-09-23T03:50:42.658Z,59.70
2018-09-23T03:51:16.022Z,59.70
2018-09-23T03:51:49.386Z,59.70
2018-09-23T03:52:22.787Z,59.60
2018-09-23T03:52:56.153Z,59.70
2018-09-23T03:53:29.429Z,59.70
2018-09-23T03:54:02.777Z,59.30
2018-09-23T03:54:36.092Z,59.50
2018-09-23T03:55:09.395Z,59.80
2018-09-23T03:55:42.666Z,59.70
2018-09-23T03:56:16.063Z,59.70
2018-09-23T03:56:49.386Z,59.70
2018-09-23T03:57:22.761Z,59.80
2018-09-23T03:57:56.128Z,59.60
2018-09-23T03:58:29.594Z,59.60
2018-09-23T03:59:02.910Z,59.70
2018-09-23T03:59:36.201Z,59.60
2018-09-23T04:00:09.483Z,59.70
2018-09-23T04:00:42.736Z,59.70
2018-09-23T04:01:16.021Z,59.70
2018-09-23T04:01:49.316Z,59.80
2018-09-23T04:02:22.824Z,59.80
2018-09-23T04:02:56.159Z,59.90
2018-09-23T04:03:29.727Z,59.80
2018-09-23T04:04:02.993Z,59.80
2018-09-23T04:04:36.257Z,59.70
2018-09-23T04:05:09.544Z,59.70
2018-09-23T04:05:42.881Z,59.40
2018-09-23T04:06:16.131Z,59.70
2018-09-23T04:06:49.501Z,60.10
2018-09-23T04:07:22.799Z,59.60
2018-09-23T04:07:56.117Z,59.70
2018-09-23T04:08:29.449Z,59.90
2018-09-23T04:09:03.118Z,59.80
2018-09-23T04:09:36.465Z,59.80
2018-09-23T04:10:09.826Z,59.80
2018-09-23T04:10:43.165Z,59.90
2018-09-23T04:11:16.490Z,59.70
2018-09-23T04:11:49.863Z,59.80
2018-09-23T04:12:23.182Z,59.70
2018-09-23T04:12:56.476Z,59.70
2018-09-23T04:13:29.758Z,59.70
2018-09-23T04:14:03.071Z,59.80
2018-09-23T04:14:36.352Z,59.70
2018-09-23T04:15:09.631Z,59.80
2018-09-23T04:15:42.956Z,59.70
2018-09-23T04:16:16.243Z,59.70
2018-09-23T04:16:49.611Z,59.80
2018-09-23T04:17:22.987Z,59.80
2018-09-23T04:17:56.265Z,59.60
2018-09-23T04:18:29.553Z,59.90
2018-09-23T04:19:02.846Z,59.70
2018-09-23T04:19:36.157Z,59.90
2018-09-23T04:20:09.476Z,59.70
2018-09-23T04:20:42.788Z,59.70
2018-09-23T04:21:16.131Z,59.80
2018-09-23T04:21:49.506Z,59.80
2018-09-23T04:22:22.808Z,59.60
2018-09-23T04:22:56.110Z,59.70
2018-09-23T04:23:29.535Z,59.60
2018-09-23T04:24:02.869Z,59.60
2018-09-23T04:24:36.192Z,59.80
2018-09-23T04:25:09.551Z,59.90
2018-09-23T04:25:42.884Z,59.90
2018-09-23T04:26:16.215Z,59.80
2018-09-23T04:26:49.521Z,59.70
2018-09-23T04:27:22.893Z,59.70
2018-09-23T04:27:56.206Z,60.50
2018-09-23T04:28:29.505Z,59.80
2018-09-23T04:29:02.801Z,59.80
2018-09-23T04:29:36.145Z,59.70
2018-09-23T04:30:09.737Z,59.90
2018-09-23T04:30:43.030Z,59.90
2018-09-23T04:31:16.377Z,59.80
2018-09-23T04:31:49.762Z,59.90
2018-09-23T04:32:23.078Z,60.00
2018-09-23T04:32:56.466Z,60.50
2018-09-23T04:33:29.783Z,59.80
2018-09-23T04:34:03.075Z,59.70
2018-09-23T04:34:36.420Z,60.00
2018-09-23T04:35:09.735Z,59.90
2018-09-23T04:35:43.053Z,59.90
2018-09-23T04:36:16.353Z,60.00
2018-09-23T04:36:49.697Z,59.90
2018-09-23T04:37:23.039Z,59.90
2018-09-23T04:37:56.423Z,59.70
2018-09-23T04:38:29.770Z,60.00
2018-09-23T04:39:03.483Z,59.90
2018-09-23T04:39:36.757Z,59.80
2018-09-23T04:40:10.063Z,59.80
2018-09-23T04:40:43.399Z,59.80
2018-09-23T04:41:16.741Z,59.80
2018-09-23T04:41:50.097Z,60.30
2018-09-23T04:42:23.438Z,60.00
2018-09-23T04:42:56.800Z,60.00
2018-09-23T04:43:30.069Z,60.00
2018-09-23T04:44:03.420Z,59.90
2018-09-23T04:44:36.757Z,59.90
2018-09-23T04:45:10.173Z,59.90
2018-09-23T04:45:43.441Z,59.90
2018-09-23T04:46:16.708Z,59.90
2018-09-23T04:46:50.114Z,59.80
2018-09-23T04:47:23.457Z,60.70
2018-09-23T04:47:56.733Z,59.80
2018-09-23T04:48:30.009Z,59.70
2018-09-23T04:49:03.450Z,59.90
2018-09-23T04:49:36.796Z,59.80
2018-09-23T04:50:10.070Z,59.90
2018-09-23T04:50:43.368Z,59.90
2018-09-23T04:51:16.686Z,60.60
2018-09-23T04:51:50.033Z,59.70
2018-09-23T04:52:23.409Z,59.80
2018-09-23T04:52:56.687Z,60.10
2018-09-23T04:53:29.962Z,59.80
2018-09-23T04:54:03.247Z,59.90
2018-09-23T04:54:36.629Z,59.80
2018-09-23T04:55:09.984Z,59.90
2018-09-23T04:55:43.316Z,59.80
2018-09-23T04:56:16.691Z,59.60
2018-09-23T04:56:50.026Z,59.80
2018-09-23T04:57:23.302Z,59.80
2018-09-23T04:57:56.611Z,59.80
2018-09-23T04:58:29.938Z,60.00
2018-09-23T04:59:03.214Z,59.90
2018-09-23T04:59:36.565Z,60.00
2018-09-23T05:00:09.838Z,59.80
2018-09-23T05:00:43.109Z,59.90
2018-09-23T05:01:16.454Z,59.90
2018-09-23T05:01:49.754Z,59.90
2018-09-23T05:02:23.174Z,60.00
2018-09-23T05:02:56.534Z,59.90
2018-09-23T05:03:29.857Z,59.80
2018-09-23T05:04:03.149Z,59.80
2018-09-23T05:04:36.534Z,59.90
2018-09-23T05:05:09.936Z,59.80
2018-09-23T05:05:43.215Z,59.50
2018-09-23T05:06:16.509Z,59.90
2018-09-23T05:06:49.829Z,60.00
2018-09-23T05:07:23.540Z,60.10
2018-09-23T05:07:56.860Z,60.00
2018-09-23T05:08:30.154Z,60.00
2018-09-23T05:09:04.193Z,60.10
2018-09-23T05:09:37.510Z,60.00
2018-09-23T05:10:10.816Z,60.00
2018-09-23T05:10:44.148Z,59.90
2018-09-23T05:11:17.445Z,60.00
2018-09-23T05:11:50.779Z,60.20
2018-09-23T05:12:24.050Z,60.00
2018-09-23T05:12:57.438Z,60.00
2018-09-23T05:13:31.052Z,59.90
2018-09-23T05:14:04.570Z,59.80
2018-09-23T05:14:37.953Z,59.90
2018-09-23T05:15:11.330Z,59.90
2018-09-23T05:15:44.642Z,59.90
2018-09-23T05:16:18.762Z,60.00
2018-09-23T05:16:52.124Z,60.10
2018-09-23T05:17:25.454Z,60.00
2018-09-23T05:17:58.772Z,59.90
2018-09-23T05:18:32.094Z,59.90
2018-09-23T05:19:05.705Z,59.90
2018-09-23T05:19:39.031Z,60.00
2018-09-23T05:20:12.304Z,59.90
2018-09-23T05:20:45.595Z,60.00
2018-09-23T05:21:18.901Z,60.00
2018-09-23T05:21:52.351Z,60.00
2018-09-23T05:22:25.777Z,60.00
2018-09-23T05:22:59.101Z,59.90
2018-09-23T05:23:32.477Z,60.00
2018-09-23T05:24:05.837Z,60.00
2018-09-23T05:24:39.143Z,60.00
2018-09-23T05:25:12.438Z,59.90
2018-09-23T05:25:45.850Z,60.00
2018-09-23T05:26:19.242Z,60.00
2018-09-23T05:26:52.621Z,59.90
2018-09-23T05:27:26.006Z,59.90
2018-09-23T05:27:59.306Z,60.00
2018-09-23T05:28:32.681Z,60.60
2018-09-23T05:29:05.968Z,59.90
2018-09-23T05:29:39.261Z,59.90
2018-09-23T05:30:12.579Z,60.00
2018-09-23T05:30:45.883Z,59.90
2018-09-23T05:31:19.247Z,60.00
2018-09-23T05:31:52.549Z,60.10
2018-09-23T05:32:25.914Z,60.70
2018-09-23T05:32:59.206Z,60.00
2018-09-23T05:33:32.587Z,60.00
2018-09-23T05:34:05.938Z,60.00
2018-09-23T05:34:39.269Z,60.00
2018-09-23T05:35:12.637Z,60.00
2018-09-23T05:35:45.989Z,60.00
2018-09-23T05:36:19.327Z,60.00
2018-09-23T05:36:52.653Z,60.00
2018-09-23T05:37:25.977Z,60.00
2018-09-23T05:37:59.266Z,60.00
2018-09-23T05:38:32.609Z,60.00
2018-09-23T05:39:06.994Z,60.10
2018-09-23T05:39:40.282Z,60.00
2018-09-23T05:40:13.687Z,60.00
2018-09-23T05:40:46.968Z,60.00
2018-09-23T05:41:20.307Z,60.00
2018-09-23T05:41:53.657Z,60.00
2018-09-23T05:42:27.117Z,60.00
2018-09-23T05:43:00.453Z,60.00
2018-09-23T05:43:34.076Z,60.00
2018-09-23T05:44:08.029Z,60.40
2018-09-23T05:44:41.486Z,60.00
2018-09-23T05:45:14.815Z,60.10
2018-09-23T05:45:48.135Z,60.10
2018-09-23T05:46:21.451Z,60.00
2018-09-23T05:46:54.827Z,60.00
2018-09-23T05:47:28.143Z,60.00
2018-09-23T05:48:01.465Z,60.00
2018-09-23T05:48:34.765Z,60.00
2018-09-23T05:49:08.673Z,59.90
2018-09-23T05:49:42.035Z,60.00
2018-09-23T05:50:15.334Z,60.00
2018-09-23T05:50:48.667Z,60.00
2018-09-23T05:51:21.981Z,60.00
2018-09-23T05:51:55.343Z,60.00
2018-09-23T05:52:28.718Z,60.10
2018-09-23T05:53:02.099Z,60.00
2018-09-23T05:53:35.392Z,60.10
2018-09-23T05:54:08.701Z,60.00
2018-09-23T05:54:42.045Z,60.00
2018-09-23T05:55:15.309Z,60.00
2018-09-23T05:55:48.589Z,60.10
2018-09-23T05:56:21.878Z,60.10
2018-09-23T05:56:55.170Z,60.00
2018-09-23T05:57:28.531Z,60.00
2018-09-23T05:58:01.832Z,60.10
2018-09-23T05:58:35.177Z,60.10
2018-09-23T05:59:08.444Z,60.20
2018-09-23T05:59:41.777Z,60.30
2018-09-23T06:00:15.606Z,60.00
2018-09-23T06:00:51.630Z,60.10
2018-09-23T06:01:24.984Z,60.20
2018-09-23T06:01:58.298Z,60.10
2018-09-23T06:02:31.634Z,60.20
2018-09-23T06:03:04.988Z,60.10
2018-09-23T06:03:38.457Z,60.40
2018-09-23T06:04:11.774Z,60.20
2018-09-23T06:04:45.397Z,60.20
2018-09-23T06:05:18.701Z,60.10
2018-09-23T06:05:52.067Z,60.00
2018-09-23T06:06:25.375Z,60.20
2018-09-23T06:06:58.657Z,60.00
2018-09-23T06:07:32.085Z,60.00
2018-09-23T06:08:05.448Z,59.80
2018-09-23T06:08:38.755Z,60.10
2018-09-23T06:09:12.212Z,60.00
2018-09-23T06:09:45.536Z,60.00
2018-09-23T06:10:18.866Z,59.90
2018-09-23T06:10:52.154Z,60.00
2018-09-23T06:11:25.468Z,60.10
2018-09-23T06:11:58.817Z,60.10
2018-09-23T06:12:32.198Z,60.10
2018-09-23T06:13:05.508Z,60.00
2018-09-23T06:13:38.792Z,60.10
2018-09-23T06:14:12.073Z,60.10
2018-09-23T06:14:45.361Z,60.20
2018-09-23T06:15:18.654Z,60.10
2018-09-23T06:15:52.101Z,60.10
2018-09-23T06:16:25.431Z,60.10
2018-09-23T06:16:58.753Z,60.00
2018-09-23T06:17:32.073Z,60.10
2018-09-23T06:18:05.607Z,60.40
2018-09-23T06:18:38.938Z,60.00
2018-09-23T06:19:12.371Z,60.20
2018-09-23T06:19:45.705Z,60.10
2018-09-23T06:20:18.969Z,60.20
2018-09-23T06:20:52.252Z,60.00
2018-09-23T06:21:25.620Z,60.30
2018-09-23T06:21:59.003Z,60.10
2018-09-23T06:22:32.385Z,60.00
2018-09-23T06:23:05.712Z,60.10
2018-09-23T06:23:39.083Z,60.30
2018-09-23T06:24:12.414Z,60.40
2018-09-23T06:24:45.742Z,60.30
2018-09-23T06:25:19.171Z,60.20
2018-09-23T06:25:52.680Z,60.30
2018-09-23T06:26:26.005Z,60.00
2018-09-23T06:26:59.338Z,60.00
2018-09-23T06:27:32.684Z,60.00
2018-09-23T06:28:06.089Z,60.00
2018-09-23T06:28:39.450Z,60.20
2018-09-23T06:29:12.792Z,60.00
2018-09-23T06:29:46.287Z,60.00
2018-09-23T06:30:19.613Z,60.10
2018-09-23T06:30:53.060Z,60.10
2018-09-23T06:31:26.310Z,60.10
2018-09-23T06:31:59.659Z,60.00
2018-09-23T06:32:33.081Z,60.40
2018-09-23T06:33:06.389Z,60.30
2018-09-23T06:33:39.734Z,60.10
2018-09-23T06:34:13.067Z,60.10
2018-09-23T06:34:46.614Z,60.10
2018-09-23T06:35:19.977Z,60.20
2018-09-23T06:35:53.322Z,60.40
2018-09-23T06:36:26.660Z,60.20
2018-09-23T06:37:00.088Z,60.30
2018-09-23T06:37:33.633Z,60.30
2018-09-23T06:38:06.934Z,60.30
2018-09-23T06:38:40.284Z,60.30
2018-09-23T06:39:13.713Z,60.30
2018-09-23T06:39:47.082Z,60.40
2018-09-23T06:40:20.499Z,60.20
2018-09-23T06:40:53.825Z,60.20
2018-09-23T06:41:27.121Z,60.30
2018-09-23T06:42:00.414Z,60.30
2018-09-23T06:42:33.760Z,61.00
2018-09-23T06:43:07.141Z,60.10
2018-09-23T06:43:40.517Z,60.10
2018-09-23T06:44:13.829Z,60.10
2018-09-23T06:44:47.221Z,60.00
2018-09-23T06:45:20.633Z,60.10
2018-09-23T06:45:54.081Z,60.20
2018-09-23T06:46:27.590Z,60.10
2018-09-23T06:47:01.395Z,60.20
2018-09-23T06:47:34.722Z,60.00
2018-09-23T06:48:08.117Z,60.20
2018-09-23T06:48:41.432Z,60.20
2018-09-23T06:49:14.757Z,60.10
2018-09-23T06:49:48.138Z,60.20
2018-09-23T06:50:21.414Z,60.00
2018-09-23T06:50:54.762Z,60.00
2018-09-23T06:51:28.074Z,60.10
2018-09-23T06:52:01.393Z,60.30
2018-09-23T06:52:34.731Z,60.20
2018-09-23T06:53:08.058Z,60.20
2018-09-23T06:53:41.413Z,60.30
2018-09-23T06:54:14.835Z,60.20
2018-09-23T06:54:48.179Z,60.50
2018-09-23T06:55:21.601Z,60.30
2018-09-23T06:55:56.004Z,60.20
2018-09-23T06:56:29.317Z,60.30
2018-09-23T06:57:07.779Z,60.30
2018-09-23T06:57:41.987Z,60.20
2018-09-23T06:58:15.425Z,60.20
2018-09-23T06:58:48.889Z,60.30
2018-09-23T06:59:22.286Z,60.10
2018-09-23T06:59:55.706Z,60.30
2018-09-23T07:00:28.982Z,60.40
2018-09-23T07:01:02.369Z,60.30
2018-09-23T07:01:35.742Z,60.30
2018-09-23T07:02:09.101Z,60.30
2018-09-23T07:02:42.704Z,60.20
2018-09-23T07:03:19.053Z,60.30
2018-09-23T07:03:52.393Z,60.30
2018-09-23T07:04:25.769Z,60.50
2018-09-23T07:05:01.281Z,60.00
2018-09-23T07:05:34.558Z,60.40
2018-09-23T07:06:07.912Z,60.40
2018-09-23T07:06:41.380Z,60.40
2018-09-23T07:07:14.755Z,60.50
2018-09-23T07:07:48.157Z,60.50
2018-09-23T07:08:21.811Z,60.30
2018-09-23T07:08:55.192Z,60.40
2018-09-23T07:09:28.488Z,60.50